createdAt,value
2019-04-23T00:02:46.100Z,41.40
2019-04-23T00:04:57.409Z,41.00
2019-04-23T00:07:39.659Z,41.10
2019-04-23T00:09:57.613Z,41.20
2019-04-23T00:12:38.109Z,41.30
2019-04-23T00:15:04.878Z,41.00
2019-04-23T00:17:35.856Z,41.60
2019-04-23T00:19:55.218Z,41.30
2019-04-23T00:22:37.068Z,41.60
2019-04-23T00:25:33.141Z,41.40
2019-04-23T00:30:18.908Z,41.50
2019-04-23T00:32:42.309Z,41.30
2019-04-23T00:35:05.990Z,41.70
2019-04-23T00:37:35.352Z,41.50
2019-04-23T00:40:02.536Z,41.50
2019-04-23T00:42:38.529Z,41.00
2019-04-23T00:45:01.734Z,41.10
2019-04-23T00:47:38.307Z,40.80
2019-04-23T00:50:12.661Z,41.10
2019-04-23T00:52:45.730Z,41.00
2019-04-23T00:55:09.950Z,41.10
2019-04-23T00:57:35.458Z,40.60
2019-04-23T01:00:02.041Z,41.00
2019-04-23T01:02:33.628Z,40.80
2019-04-23T01:05:04.690Z,41.10
2019-04-23T01:07:29.629Z,41.10
2019-04-23T01:10:08.767Z,41.20
2019-04-23T01:12:37.543Z,41.20
2019-04-23T01:15:04.734Z,41.60
2019-04-23T01:17:39.496Z,41.70
2019-04-23T01:20:12.515Z,41.80
2019-04-23T01:22:16.653Z,41.70
2019-04-23T01:25:04.739Z,42.10
2019-04-23T01:27:58.943Z,43.20
2019-04-23T01:30:27.703Z,43.00
2019-04-23T01:32:54.570Z,43.00
2019-04-23T01:35:39.682Z,43.40
2019-04-23T01:37:53.862Z,43.70
2019-04-23T01:40:28.910Z,43.30
2019-04-23T01:42:49.279Z,43.80
2019-04-23T01:45:24.179Z,43.60
2019-04-23T01:52:55.026Z,44.40
2019-04-23T01:55:26.287Z,44.30
2019-04-23T01:57:58.898Z,44.30
2019-04-23T02:00:22.769Z,44.10
2019-04-23T02:03:01.119Z,44.30
2019-04-23T02:05:22.895Z,44.50
2019-04-23T02:08:03.315Z,44.60
2019-04-23T02:10:20.500Z,44.70
2019-04-23T02:12:49.941Z,44.50
2019-04-23T02:15:17.000Z,44.20
2019-04-23T02:17:50.104Z,44.10
2019-04-23T02:20:16.055Z,44.00
2019-04-23T02:23:18.521Z,44.00
2019-04-23T02:25:44.067Z,44.20
2019-04-23T02:28:09.175Z,44.10
2019-04-23T02:30:57.863Z,44.30
2019-04-23T02:35:56.299Z,44.70
2019-04-23T02:43:13.069Z,45.20
2019-04-23T02:45:48.472Z,45.60
2019-04-23T02:48:24.116Z,45.80
2019-04-23T02:50:39.465Z,45.70
2019-04-23T02:53:14.829Z,46.20
2019-04-23T02:55:43.707Z,46.40
2019-04-23T02:58:11.130Z,46.90
2019-04-23T03:03:06.041Z,47.40
2019-04-23T03:10:40.386Z,48.50
2019-04-23T03:13:19.328Z,48.80
2019-04-23T03:19:02.618Z,48.20
2019-04-23T03:24:25.167Z,48.70
2019-04-23T03:26:47.658Z,48.70
2019-04-23T03:29:16.774Z,48.70
2019-04-23T03:34:15.118Z,48.70
2019-04-23T03:37:06.288Z,48.70
2019-04-23T03:43:51.930Z,48.70
2019-04-23T03:49:01.240Z,48.90
2019-04-23T03:51:36.485Z,49.10
2019-04-23T03:59:03.393Z,49.20
2019-04-23T04:01:48.711Z,49.40
2019-04-23T04:04:22.740Z,49.80
2019-04-23T04:09:08.107Z,49.70
2019-04-23T04:11:21.648Z,49.70
2019-04-23T04:14:03.449Z,49.70
2019-04-23T04:18:57.313Z,50.00
2019-04-23T04:21:29.889Z,50.10
2019-04-23T04:24:05.081Z,50.30
2019-04-23T04:28:54.917Z,50.50
2019-04-23T04:31:21.905Z,50.70
2019-04-23T04:34:01.117Z,50.70
2019-04-23T04:38:46.915Z,50.90
2019-04-23T04:41:14.347Z,51.00
2019-04-23T04:43:54.186Z,51.20
2019-04-23T04:46:21.285Z,51.10
2019-04-23T04:51:24.401Z,51.20
2019-04-23T04:53:50.800Z,51.40
2019-04-23T04:56:28.053Z,51.90
2019-04-23T05:06:31.190Z,51.90
2019-04-23T05:08:41.547Z,52.30
2019-04-23T05:11:08.595Z,52.20
2019-04-23T05:18:42.625Z,52.70
2019-04-23T05:21:23.971Z,52.50
2019-04-23T05:23:52.511Z,52.60
2019-04-23T05:26:23.921Z,52.30
2019-04-23T05:28:55.544Z,52.60
2019-04-23T05:31:15.808Z,52.70
2019-04-23T05:33:48.935Z,52.80
2019-04-23T05:36:26.209Z,52.60
2019-04-23T05:39:00.901Z,52.80
2019-04-23T05:41:19.998Z,52.70
2019-04-23T05:43:43.514Z,52.70
2019-04-23T05:46:14.303Z,53.20
2019-04-23T05:48:40.445Z,52.70
2019-04-23T05:51:11.237Z,52.60
2019-04-23T05:53:43.665Z,52.40
2019-04-23T05:58:36.941Z,52.50
2019-04-23T06:04:08.819Z,52.70
2019-04-23T06:08:59.762Z,52.70
2019-04-23T06:14:01.034Z,53.00
2019-04-23T06:16:31.456Z,52.80
2019-04-23T06:18:59.249Z,52.10
2019-04-23T06:21:31.300Z,52.70
2019-04-23T06:23:51.765Z,52.50
2019-04-23T06:26:39.551Z,52.50
2019-04-23T06:28:56.244Z,53.10
2019-04-23T06:31:24.497Z,52.80
2019-04-23T06:33:48.034Z,51.60
2019-04-23T06:36:24.232Z,52.30
2019-04-23T06:38:54.519Z,52.10
2019-04-23T06:41:15.359Z,51.90
2019-04-23T06:44:02.123Z,51.80
2019-04-23T06:46:24.200Z,52.30
2019-04-23T06:48:47.279Z,52.30
2019-04-23T06:51:37.933Z,51.50
2019-04-23T06:53:43.114Z,53.40
2019-04-23T06:56:22.383Z,51.70
2019-04-23T06:58:43.427Z,51.40
2019-04-23T07:01:09.566Z,51.60
2019-04-23T07:03:51.805Z,51.80
2019-04-23T07:06:28.578Z,51.70
2019-04-23T07:09:08.121Z,51.60
2019-04-23T07:11:23.463Z,51.30
2019-04-23T07:13:57.644Z,51.00
2019-04-23T07:16:11.378Z,51.50
2019-04-23T07:18:41.578Z,50.70
2019-04-23T07:21:12.973Z,51.70
2019-04-23T07:23:46.815Z,51.50
2019-04-23T07:26:17.523Z,51.60
2019-04-23T07:28:44.704Z,51.50
2019-04-23T07:31:15.199Z,50.80
2019-04-23T07:33:44.636Z,51.00
2019-04-23T07:36:15.614Z,49.90
2019-04-23T07:38:55.011Z,50.00
2019-04-23T07:41:32.253Z,50.30
2019-04-23T07:44:12.525Z,50.00
2019-04-23T07:46:56.310Z,50.40
2019-04-23T07:49:10.350Z,50.20
2019-04-23T07:56:35.763Z,48.60
2019-04-23T07:59:14.260Z,48.20
2019-04-23T08:01:34.874Z,49.20
2019-04-23T08:04:03.112Z,48.90
2019-04-23T08:06:33.205Z,49.10
2019-04-23T08:09:03.644Z,49.40
2019-04-23T08:16:35.230Z,48.30
2019-04-23T08:18:58.924Z,48.70
2019-04-23T08:21:32.037Z,49.30
2019-04-23T08:24:28.944Z,48.60
2019-04-23T08:26:59.065Z,49.20
2019-04-23T08:29:37.114Z,48.70
2019-04-23T08:32:13.832Z,48.50
2019-04-23T08:39:43.397Z,48.60
2019-04-23T08:42:33.114Z,49.00
2019-04-23T08:45:10.550Z,48.60
2019-04-23T08:48:00.727Z,48.80
2019-04-23T08:50:27.440Z,47.30
2019-04-23T08:52:38.285Z,48.60
2019-04-23T08:55:13.701Z,47.80
2019-04-23T08:57:32.161Z,48.60
2019-04-23T09:00:02.873Z,48.30
2019-04-23T09:02:43.875Z,48.60
2019-04-23T09:05:09.429Z,48.10
2019-04-23T09:10:07.700Z,47.70
2019-04-23T09:12:35.026Z,47.50
2019-04-23T09:15:07.847Z,47.40
2019-04-23T09:17:34.657Z,47.20
2019-04-23T09:25:03.962Z,47.30
2019-04-23T09:27:42.103Z,46.10
2019-04-23T09:30:02.622Z,45.60
2019-04-23T09:35:20.985Z,45.10
2019-04-23T09:38:10.146Z,44.20
2019-04-23T09:43:31.506Z,42.50
2019-04-23T09:46:22.485Z,43.00
2019-04-23T09:48:54.622Z,43.40
2019-04-23T09:51:17.664Z,45.30
2019-04-23T09:53:41.092Z,41.90
2019-04-23T09:56:19.513Z,41.80
2019-04-23T09:58:49.967Z,40.10
2019-04-23T10:01:20.472Z,41.30
2019-04-23T10:03:36.271Z,40.20
2019-04-23T10:05:59.811Z,40.60
2019-04-23T10:08:26.809Z,41.40
2019-04-23T10:10:49.108Z,40.80
2019-04-23T10:13:17.954Z,39.50
2019-04-23T10:15:48.080Z,39.50
2019-04-23T10:18:16.180Z,40.80
2019-04-23T10:20:44.600Z,39.40
2019-04-23T10:23:12.420Z,39.60
2019-04-23T10:25:40.302Z,40.00
2019-04-23T10:28:16.374Z,41.50
2019-04-23T10:30:44.903Z,39.90
2019-04-23T10:33:13.728Z,39.60
2019-04-23T10:35:51.538Z,40.70
2019-04-23T10:38:14.385Z,40.20
2019-04-23T10:40:43.978Z,40.00
2019-04-23T10:43:09.258Z,41.40
2019-04-23T10:46:03.961Z,40.50
2019-04-23T10:51:41.242Z,40.10
2019-04-23T10:54:24.035Z,40.70
2019-04-23T10:59:28.747Z,40.60
2019-04-23T11:02:15.983Z,40.10
2019-04-23T11:04:47.311Z,40.00
2019-04-23T11:07:17.070Z,39.80
2019-04-23T11:09:45.253Z,41.00
2019-04-23T11:12:02.126Z,40.10
2019-04-23T11:14:34.396Z,39.70
2019-04-23T11:17:17.778Z,40.30
2019-04-23T11:19:33.998Z,39.40
2019-04-23T11:22:13.251Z,39.20
2019-04-23T11:26:55.794Z,40.50
2019-04-23T11:32:31.729Z,40.30
2019-04-23T11:39:23.277Z,40.10
2019-04-23T11:41:59.735Z,39.40
2019-04-23T11:44:26.948Z,41.70
2019-04-23T11:49:33.060Z,40.80
2019-04-23T11:51:56.315Z,41.30
2019-04-23T11:54:17.907Z,40.30
2019-04-23T11:59:28.405Z,39.40
2019-04-23T12:02:07.149Z,41.90
2019-04-23T12:04:55.097Z,40.20
2019-04-23T12:07:22.803Z,42.40
2019-04-23T12:10:19.840Z,39.40
2019-04-23T12:15:13.434Z,40.30
2019-04-23T12:17:43.803Z,38.90
2019-04-23T12:20:16.218Z,40.30
2019-04-23T12:25:19.876Z,41.20
2019-04-23T12:27:33.145Z,40.00
2019-04-23T12:38:04.180Z,38.20
2019-04-23T12:40:46.562Z,37.60
2019-04-23T12:43:04.934Z,38.20
2019-04-23T12:48:09.781Z,36.00
2019-04-23T12:50:51.647Z,36.40
2019-04-23T12:53:05.024Z,36.60
2019-04-23T12:58:01.174Z,35.70
2019-04-23T13:02:56.226Z,33.80
2019-04-23T13:05:28.918Z,35.40
2019-04-23T13:08:24.881Z,36.70
2019-04-23T13:10:28.362Z,35.30
2019-04-23T13:15:22.532Z,36.30
2019-04-23T13:20:23.518Z,36.10
2019-04-23T13:22:57.715Z,37.30
2019-04-23T13:25:49.609Z,35.00
2019-04-23T13:30:53.139Z,34.60
2019-04-23T13:33:28.266Z,34.40
2019-04-23T13:35:53.335Z,32.50
2019-04-23T13:45:59.594Z,32.60
2019-04-23T13:48:10.831Z,32.40
2019-04-23T13:50:55.387Z,32.00
2019-04-23T13:53:31.662Z,32.50
2019-04-23T13:55:42.903Z,31.50
2019-04-23T13:58:14.678Z,32.20
2019-04-23T14:00:58.098Z,31.80
2019-04-23T14:11:03.610Z,31.30
2019-04-23T14:13:46.317Z,31.60
2019-04-23T14:21:08.088Z,32.40
2019-04-23T14:23:59.121Z,31.40
2019-04-23T14:28:37.369Z,31.90
2019-04-23T14:31:07.955Z,31.00
2019-04-23T14:36:03.234Z,31.90
2019-04-23T14:38:41.663Z,32.70
2019-04-23T14:41:12.483Z,31.90
2019-04-23T14:43:30.928Z,32.90
2019-04-23T14:51:25.636Z,31.80
2019-04-23T14:53:53.806Z,32.70
2019-04-23T14:56:23.956Z,34.10
2019-04-23T14:58:53.466Z,31.10
2019-04-23T15:03:46.829Z,32.50
2019-04-23T15:06:27.713Z,31.50
2019-04-23T15:11:24.694Z,32.40
2019-04-23T15:13:45.583Z,32.00
2019-04-23T15:22:16.920Z,32.00
2019-04-23T15:24:13.930Z,30.70
2019-04-23T15:28:53.986Z,30.00
2019-04-23T15:31:39.390Z,30.70
2019-04-23T15:39:19.543Z,32.90
2019-04-23T15:41:38.221Z,29.50
2019-04-23T15:46:40.907Z,31.30
2019-04-23T15:51:38.508Z,29.50
2019-04-23T15:59:18.535Z,30.30
2019-04-23T16:01:37.212Z,30.40
2019-04-23T16:03:30.184Z,29.70
2019-04-23T16:05:59.422Z,29.00
2019-04-23T16:14:15.800Z,29.60
2019-04-23T16:16:31.529Z,29.90
2019-04-23T16:19:07.983Z,30.00
2019-04-23T16:21:51.403Z,31.10
2019-04-23T16:24:06.109Z,29.80
2019-04-23T16:31:34.581Z,29.60
2019-04-23T16:34:25.648Z,30.60
2019-04-23T16:36:55.774Z,31.40
2019-04-23T16:39:16.285Z,31.00
2019-04-23T16:44:20.072Z,31.10
2019-04-23T16:46:56.171Z,29.80
2019-04-23T16:49:19.380Z,30.70
2019-04-23T16:51:45.935Z,32.30
2019-04-23T16:54:19.092Z,32.70
2019-04-23T16:57:01.434Z,32.90
2019-04-23T16:59:18.702Z,33.60
2019-04-23T17:01:44.123Z,33.90
2019-04-23T17:04:19.633Z,34.20
2019-04-23T17:06:44.327Z,34.30
2019-04-23T17:09:15.845Z,34.40
2019-04-23T17:11:53.110Z,34.60
2019-04-23T17:19:10.942Z,36.40
2019-04-23T17:21:57.309Z,36.80
2019-04-23T17:24:14.620Z,37.40
2019-04-23T17:29:05.824Z,39.00
2019-04-23T17:34:10.837Z,39.50
2019-04-23T17:39:46.973Z,40.20
2019-04-23T17:45:06.082Z,41.40
2019-04-23T17:47:42.824Z,41.90
2019-04-23T17:50:16.413Z,42.40
2019-04-23T17:52:41.827Z,42.90
2019-04-23T17:55:13.349Z,43.20
2019-04-23T18:02:55.455Z,45.10
2019-04-23T18:10:22.250Z,46.20
2019-04-23T18:15:04.735Z,48.40
2019-04-23T18:17:45.279Z,49.70
2019-04-23T18:20:24.775Z,49.60
2019-04-23T18:23:00.721Z,50.00
2019-04-23T18:25:45.683Z,50.80
2019-04-23T18:28:08.961Z,51.00
2019-04-23T18:31:06.182Z,51.80
2019-04-23T18:36:02.475Z,52.90
2019-04-23T18:38:55.299Z,53.60
2019-04-23T18:41:05.443Z,53.80
2019-04-23T18:46:10.135Z,54.20
2019-04-23T18:58:44.839Z,56.30
2019-04-23T19:01:05.320Z,56.40
2019-04-23T19:06:41.126Z,55.70
2019-04-23T19:10:05.638Z,55.80
2019-04-23T19:12:31.389Z,55.30
2019-04-23T19:14:56.199Z,56.80
2019-04-23T19:17:43.006Z,57.30
2019-04-23T19:24:45.168Z,56.80
2019-04-23T19:32:14.250Z,56.80
2019-04-23T19:35:16.527Z,57.30
2019-04-23T19:37:30.334Z,57.40
2019-04-23T19:39:52.094Z,56.50
2019-04-23T19:42:18.066Z,56.40
2019-04-23T19:44:48.184Z,56.80
2019-04-23T19:49:51.329Z,57.30
2019-04-23T19:52:52.366Z,56.40
2019-04-23T19:54:58.796Z,56.60
2019-04-23T19:57:22.840Z,57.50
2019-04-23T20:02:20.017Z,57.10
2019-04-23T20:12:09.448Z,58.90
2019-04-23T20:17:34.074Z,59.70
2019-04-23T20:27:15.508Z,62.30
2019-04-23T20:30:15.512Z,62.60
2019-04-23T20:35:11.248Z,65.00
2019-04-23T20:38:20.557Z,64.60
2019-04-23T20:40:23.671Z,64.80
2019-04-23T20:42:46.948Z,64.80
2019-04-23T20:45:16.519Z,65.40
2019-04-23T20:47:48.627Z,65.70
2019-04-23T20:50:06.937Z,66.10
2019-04-23T20:52:43.041Z,66.30
2019-04-23T20:55:06.786Z,66.00
2019-04-23T20:57:48.566Z,67.50
2019-04-23T21:00:25.977Z,66.80
2019-04-23T21:03:30.970Z,66.90
2019-04-23T21:08:13.875Z,66.50
2019-04-23T21:15:38.894Z,68.30
2019-04-23T21:18:10.859Z,69.00
2019-04-23T21:23:09.399Z,71.20
2019-04-23T21:25:30.507Z,72.00
2019-04-23T21:28:08.612Z,71.90
2019-04-23T21:33:52.126Z,73.30
2019-04-23T21:36:35.451Z,74.30
2019-04-23T21:47:01.267Z,76.50
2019-04-23T21:49:40.695Z,77.20
2019-04-23T21:52:02.223Z,77.60
2019-04-23T21:54:22.976Z,78.00
2019-04-23T21:59:29.534Z,79.10
2019-04-23T22:01:59.298Z,78.00
2019-04-23T22:09:21.222Z,78.80
2019-04-23T22:14:16.946Z,79.40
2019-04-23T22:16:57.638Z,78.80
2019-04-23T22:19:20.109Z,78.70
2019-04-23T22:21:54.456Z,79.50
2019-04-23T22:24:39.853Z,78.80
2019-04-23T22:31:47.435Z,79.50
2019-04-23T22:36:51.909Z,80.30
2019-04-23T22:39:17.676Z,81.30
2019-04-23T22:41:54.063Z,81.20
2019-04-23T22:44:14.392Z,81.50
2019-04-23T22:56:50.096Z,80.80
2019-04-23T22:59:26.378Z,80.80
2019-04-23T23:01:53.670Z,80.60
2019-04-23T23:04:24.324Z,81.10
2019-04-23T23:07:03.296Z,82.10
2019-04-23T23:11:49.073Z,83.10
2019-04-23T23:14:14.617Z,83.20
2019-04-23T23:19:16.994Z,82.80
2019-04-23T23:21:53.549Z,82.90
2019-04-23T23:24:10.076Z,83.10
2019-04-23T23:26:42.633Z,82.90
2019-04-23T23:29:04.411Z,83.80
2019-04-23T23:31:40.017Z,84.60
2019-04-23T23:36:40.405Z,84.60
2019-04-23T23:39:06.835Z,84.70
2019-04-23T23:41:33.809Z,84.80
2019-04-23T23:44:27.689Z,85.60
2019-04-23T23:46:37.851Z,85.00
2019-04-23T23:49:03.292Z,84.90
2019-04-23T23:51:39.852Z,85.10
2019-04-23T23:56:30.789Z,85.60
2019-04-23T23:59:03.882Z,86.80
